sensor_id;sensor_type;location;lat;lon;timestamp;temperature;humidity
73121;DHT22;61307;49.628;-1.624;2023-03-29T00:00:40;18.80;46.80
73121;DHT22;61307;49.628;-1.624;2023-03-29T00:03:07;18.80;46.80
73121;DHT22;61307;49.628;-1.624;2023-03-29T00:05:37;18.70;46.80
73121;DHT22;61307;49.628;-1.624;2023-03-29T00:08:06;18.70;46.90
73121;DHT22;61307;49.628;-1.624;2023-03-29T00:10:33;18.70;47.00
73121;DHT22;61307;49.628;-1.624;2023-03-29T00:13:02;18.80;47.10
73121;DHT22;61307;49.628;-1.624;2023-03-29T00:15:29;18.70;47.00
73121;DHT22;61307;49.628;-1.624;2023-03-29T00:17:57;18.70;47.00
73121;DHT22;61307;49.628;-1.624;2023-03-29T00:20:24;18.70;47.10
73121;DHT22;61307;49.628;-1.624;2023-03-29T00:22:51;18.70;47.10
73121;DHT22;61307;49.628;-1.624;2023-03-29T00:25:19;18.70;47.10
73121;DHT22;61307;49.628;-1.624;2023-03-29T00:27:46;18.70;47.20
73121;DHT22;61307;49.628;-1.624;2023-03-29T00:30:15;18.70;47.90
73121;DHT22;61307;49.628;-1.624;2023-03-29T00:32:43;18.70;47.30
73121;DHT22;61307;49.628;-1.624;2023-03-29T00:35:10;18.70;47.30
73121;DHT22;61307;49.628;-1.624;2023-03-29T00:37:37;18.70;47.30
73121;DHT22;61307;49.628;-1.624;2023-03-29T00:40:07;18.70;47.40
73121;DHT22;61307;49.628;-1.624;2023-03-29T00:42:36;18.70;47.40
73121;DHT22;61307;49.628;-1.624;2023-03-29T00:45:06;18.60;47.40
73121;DHT22;61307;49.628;-1.624;2023-03-29T00:47:37;18.70;47.50
73121;DHT22;61307;49.628;-1.624;2023-03-29T00:50:10;18.60;47.40
73121;DHT22;61307;49.628;-1.624;2023-03-29T00:52:41;18.60;47.50
73121;DHT22;61307;49.628;-1.624;2023-03-29T00:55:14;18.60;47.50
73121;DHT22;61307;49.628;-1.624;2023-03-29T00:57:43;18.60;47.60
73121;DHT22;61307;49.628;-1.624;2023-03-29T01:00:14;18.60;47.60
73121;DHT22;61307;49.628;-1.624;2023-03-29T01:02:46;18.60;47.60
73121;DHT22;61307;49.628;-1.624;2023-03-29T01:05:22;18.60;47.70
73121;DHT22;61307;49.628;-1.624;2023-03-29T01:07:57;18.60;47.70
73121;DHT22;61307;49.628;-1.624;2023-03-29T01:10:28;18.60;47.70
73121;DHT22;61307;49.628;-1.624;2023-03-29T01:13:03;18.60;47.80
73121;DHT22;61307;49.628;-1.624;2023-03-29T01:15:32;18.60;47.80
73121;DHT22;61307;49.628;-1.624;2023-03-29T01:18:01;18.60;47.90
73121;DHT22;61307;49.628;-1.624;2023-03-29T01:20:42;18.60;47.80
73121;DHT22;61307;49.628;-1.624;2023-03-29T01:23:30;18.60;47.90
73121;DHT22;61307;49.628;-1.624;2023-03-29T01:26:10;18.60;48.00
73121;DHT22;61307;49.628;-1.624;2023-03-29T01:28:45;18.60;48.00
73121;DHT22;61307;49.628;-1.624;2023-03-29T01:31:18;18.60;48.00
73121;DHT22;61307;49.628;-1.624;2023-03-29T01:33:50;18.60;48.10
73121;DHT22;61307;49.628;-1.624;2023-03-29T01:36:23;18.60;48.10
73121;DHT22;61307;49.628;-1.624;2023-03-29T01:38:55;18.60;48.20
73121;DHT22;61307;49.628;-1.624;2023-03-29T01:41:28;18.60;48.20
73121;DHT22;61307;49.628;-1.624;2023-03-29T01:44:06;18.60;48.20
73121;DHT22;61307;49.628;-1.624;2023-03-29T01:46:40;18.60;48.20
73121;DHT22;61307;49.628;-1.624;2023-03-29T01:49:15;18.60;48.20
73121;DHT22;61307;49.628;-1.624;2023-03-29T01:51:49;18.60;48.20
73121;DHT22;61307;49.628;-1.624;2023-03-29T01:54:20;18.60;48.30
73121;DHT22;61307;49.628;-1.624;2023-03-29T01:56:50;18.50;48.20
73121;DHT22;61307;49.628;-1.624;2023-03-29T01:59:21;18.60;48.40
73121;DHT22;61307;49.628;-1.624;2023-03-29T02:01:54;18.60;48.40
73121;DHT22;61307;49.628;-1.624;2023-03-29T02:04:27;18.60;48.40
73121;DHT22;61307;49.628;-1.624;2023-03-29T02:06:57;18.60;48.50
73121;DHT22;61307;49.628;-1.624;2023-03-29T02:09:26;18.50;48.40
73121;DHT22;61307;49.628;-1.624;2023-03-29T02:11:56;18.50;48.40
73121;DHT22;61307;49.628;-1.624;2023-03-29T02:14:27;18.50;48.50
73121;DHT22;61307;49.628;-1.624;2023-03-29T02:16:55;18.60;48.60
73121;DHT22;61307;49.628;-1.624;2023-03-29T02:19:23;18.50;48.50
73121;DHT22;61307;49.628;-1.624;2023-03-29T02:21:57;18.50;48.50
73121;DHT22;61307;49.628;-1.624;2023-03-29T02:24:29;18.50;48.60
73121;DHT22;61307;49.628;-1.624;2023-03-29T02:26:57;18.50;48.60
73121;DHT22;61307;49.628;-1.624;2023-03-29T02:29:27;18.50;48.60
73121;DHT22;61307;49.628;-1.624;2023-03-29T02:31:57;18.50;48.70
73121;DHT22;61307;49.628;-1.624;2023-03-29T02:34:28;18.50;48.70
73121;DHT22;61307;49.628;-1.624;2023-03-29T02:36:58;18.50;48.80
73121;DHT22;61307;49.628;-1.624;2023-03-29T02:39:27;18.50;48.90
73121;DHT22;61307;49.628;-1.624;2023-03-29T02:41:56;18.50;48.90
73121;DHT22;61307;49.628;-1.624;2023-03-29T02:44:28;18.50;48.90
73121;DHT22;61307;49.628;-1.624;2023-03-29T02:46:59;18.50;49.00
73121;DHT22;61307;49.628;-1.624;2023-03-29T02:49:27;18.50;49.00
73121;DHT22;61307;49.628;-1.624;2023-03-29T02:51:56;18.40;48.90
73121;DHT22;61307;49.628;-1.624;2023-03-29T02:54:27;18.40;49.00
73121;DHT22;61307;49.628;-1.624;2023-03-29T02:56:57;18.50;49.00
73121;DHT22;61307;49.628;-1.624;2023-03-29T02:59:26;18.50;49.00
73121;DHT22;61307;49.628;-1.624;2023-03-29T03:01:57;18.50;49.10
73121;DHT22;61307;49.628;-1.624;2023-03-29T03:04:25;18.40;49.10
73121;DHT22;61307;49.628;-1.624;2023-03-29T03:06:52;18.40;49.10
73121;DHT22;61307;49.628;-1.624;2023-03-29T03:09:19;18.40;49.20
73121;DHT22;61307;49.628;-1.624;2023-03-29T03:11:46;18.40;49.10
73121;DHT22;61307;49.628;-1.624;2023-03-29T03:14:13;18.40;49.20
73121;DHT22;61307;49.628;-1.624;2023-03-29T03:16:41;18.40;49.20
73121;DHT22;61307;49.628;-1.624;2023-03-29T03:19:10;18.40;49.40
73121;DHT22;61307;49.628;-1.624;2023-03-29T03:21:37;18.40;49.30
73121;DHT22;61307;49.628;-1.624;2023-03-29T03:24:05;18.40;49.40
73121;DHT22;61307;49.628;-1.624;2023-03-29T03:26:33;18.40;49.40
73121;DHT22;61307;49.628;-1.624;2023-03-29T03:29:02;18.40;49.40
73121;DHT22;61307;49.628;-1.624;2023-03-29T03:31:30;18.40;49.40
73121;DHT22;61307;49.628;-1.624;2023-03-29T03:33:58;18.40;49.60
73121;DHT22;61307;49.628;-1.624;2023-03-29T03:36:27;18.40;49.50
73121;DHT22;61307;49.628;-1.624;2023-03-29T03:38:56;18.40;49.60
73121;DHT22;61307;49.628;-1.624;2023-03-29T03:41:23;18.40;49.60
73121;DHT22;61307;49.628;-1.624;2023-03-29T03:43:51;18.40;49.60
73121;DHT22;61307;49.628;-1.624;2023-03-29T03:46:18;18.40;49.60
73121;DHT22;61307;49.628;-1.624;2023-03-29T03:48:46;18.40;49.60
73121;DHT22;61307;49.628;-1.624;2023-03-29T03:51:13;18.40;49.60
73121;DHT22;61307;49.628;-1.624;2023-03-29T03:53:42;18.40;49.60
73121;DHT22;61307;49.628;-1.624;2023-03-29T03:56:09;18.40;49.60
73121;DHT22;61307;49.628;-1.624;2023-03-29T03:58:38;18.40;49.60
73121;DHT22;61307;49.628;-1.624;2023-03-29T04:01:05;18.40;49.60
73121;DHT22;61307;49.628;-1.624;2023-03-29T04:03:33;18.40;49.60
73121;DHT22;61307;49.628;-1.624;2023-03-29T04:06:02;18.40;49.60
73121;DHT22;61307;49.628;-1.624;2023-03-29T04:08:30;18.40;49.70
73121;DHT22;61307;49.628;-1.624;2023-03-29T04:10:59;18.40;49.60
73121;DHT22;61307;49.628;-1.624;2023-03-29T04:13:26;18.40;49.60
73121;DHT22;61307;49.628;-1.624;2023-03-29T04:15:54;18.40;49.70
73121;DHT22;61307;49.628;-1.624;2023-03-29T04:18:22;18.40;49.80
73121;DHT22;61307;49.628;-1.624;2023-03-29T04:20:49;18.40;49.90
73121;DHT22;61307;49.628;-1.624;2023-03-29T04:23:16;18.40;49.80
73121;DHT22;61307;49.628;-1.624;2023-03-29T04:25:44;18.40;49.90
73121;DHT22;61307;49.628;-1.624;2023-03-29T04:28:13;18.40;50.00
73121;DHT22;61307;49.628;-1.624;2023-03-29T04:30:41;18.40;50.60
73121;DHT22;61307;49.628;-1.624;2023-03-29T04:33:08;18.40;50.00
73121;DHT22;61307;49.628;-1.624;2023-03-29T04:35:35;18.40;50.00
73121;DHT22;61307;49.628;-1.624;2023-03-29T04:38:03;18.40;50.00
73121;DHT22;61307;49.628;-1.624;2023-03-29T04:40:34;18.30;49.90
73121;DHT22;61307;49.628;-1.624;2023-03-29T04:43:01;18.30;50.00
73121;DHT22;61307;49.628;-1.624;2023-03-29T04:45:31;18.30;50.00
73121;DHT22;61307;49.628;-1.624;2023-03-29T04:47:58;18.30;50.00
73121;DHT22;61307;49.628;-1.624;2023-03-29T04:50:25;18.30;50.00
73121;DHT22;61307;49.628;-1.624;2023-03-29T04:52:52;18.40;50.10
73121;DHT22;61307;49.628;-1.624;2023-03-29T04:55:20;18.40;50.10
73121;DHT22;61307;49.628;-1.624;2023-03-29T04:57:47;18.40;50.10
73121;DHT22;61307;49.628;-1.624;2023-03-29T05:00:14;18.40;50.10
73121;DHT22;61307;49.628;-1.624;2023-03-29T05:02:44;18.40;50.10
73121;DHT22;61307;49.628;-1.624;2023-03-29T05:05:12;18.40;50.10
73121;DHT22;61307;49.628;-1.624;2023-03-29T05:07:39;18.40;50.10
73121;DHT22;61307;49.628;-1.624;2023-03-29T05:10:07;18.40;50.10
73121;DHT22;61307;49.628;-1.624;2023-03-29T05:12:35;18.40;50.10
73121;DHT22;61307;49.628;-1.624;2023-03-29T05:15:02;18.40;50.10
73121;DHT22;61307;49.628;-1.624;2023-03-29T05:17:30;18.40;50.10
73121;DHT22;61307;49.628;-1.624;2023-03-29T05:19:59;18.40;50.00
73121;DHT22;61307;49.628;-1.624;2023-03-29T05:22:26;18.50;50.10
73121;DHT22;61307;49.628;-1.624;2023-03-29T05:24:54;18.50;50.10
73121;DHT22;61307;49.628;-1.624;2023-03-29T05:27:22;18.50;50.10
73121;DHT22;61307;49.628;-1.624;2023-03-29T05:29:49;18.50;50.10
73121;DHT22;61307;49.628;-1.624;2023-03-29T05:32:16;18.50;50.10
73121;DHT22;61307;49.628;-1.624;2023-03-29T05:34:44;18.50;50.10
73121;DHT22;61307;49.628;-1.624;2023-03-29T05:37:13;18.50;50.10
73121;DHT22;61307;49.628;-1.624;2023-03-29T05:39:40;18.50;50.10
73121;DHT22;61307;49.628;-1.624;2023-03-29T05:42:07;18.60;50.10
73121;DHT22;61307;49.628;-1.624;2023-03-29T05:44:36;18.50;50.00
73121;DHT22;61307;49.628;-1.624;2023-03-29T05:47:04;18.50;50.00
73121;DHT22;61307;49.628;-1.624;2023-03-29T05:49:32;18.60;50.10
73121;DHT22;61307;49.628;-1.624;2023-03-29T05:51:59;18.60;50.10
73121;DHT22;61307;49.628;-1.624;2023-03-29T05:54:28;18.60;50.10
73121;DHT22;61307;49.628;-1.624;2023-03-29T05:56:56;18.60;50.10
73121;DHT22;61307;49.628;-1.624;2023-03-29T05:59:23;18.60;50.10
73121;DHT22;61307;49.628;-1.624;2023-03-29T06:01:52;18.60;50.00
73121;DHT22;61307;49.628;-1.624;2023-03-29T06:04:20;18.60;50.00
73121;DHT22;61307;49.628;-1.624;2023-03-29T06:06:47;18.60;50.00
73121;DHT22;61307;49.628;-1.624;2023-03-29T06:09:14;18.60;49.90
73121;DHT22;61307;49.628;-1.624;2023-03-29T06:11:43;18.60;49.80
73121;DHT22;61307;49.628;-1.624;2023-03-29T06:14:11;18.60;49.80
73121;DHT22;61307;49.628;-1.624;2023-03-29T06:16:39;18.60;49.80
73121;DHT22;61307;49.628;-1.624;2023-03-29T06:19:07;18.70;49.90
73121;DHT22;61307;49.628;-1.624;2023-03-29T06:21:35;18.70;49.90
73121;DHT22;61307;49.628;-1.624;2023-03-29T06:24:03;18.60;49.80
73121;DHT22;61307;49.628;-1.624;2023-03-29T06:26:31;18.70;49.80
73121;DHT22;61307;49.628;-1.624;2023-03-29T06:29:00;18.70;49.80
73121;DHT22;61307;49.628;-1.624;2023-03-29T06:31:28;18.70;49.80
73121;DHT22;61307;49.628;-1.624;2023-03-29T06:33:55;18.70;49.80
73121;DHT22;61307;49.628;-1.624;2023-03-29T06:36:23;18.70;49.80
73121;DHT22;61307;49.628;-1.624;2023-03-29T06:38:51;18.70;49.80
73121;DHT22;61307;49.628;-1.624;2023-03-29T06:41:19;18.70;49.80
73121;DHT22;61307;49.628;-1.624;2023-03-29T06:43:46;18.70;49.80
73121;DHT22;61307;49.628;-1.624;2023-03-29T06:46:16;18.70;49.80
73121;DHT22;61307;49.628;-1.624;2023-03-29T06:48:43;18.70;49.80
73121;DHT22;61307;49.628;-1.624;2023-03-29T06:51:10;18.70;49.80
73121;DHT22;61307;49.628;-1.624;2023-03-29T06:53:38;18.70;49.80
73121;DHT22;61307;49.628;-1.624;2023-03-29T06:56:05;18.80;49.90
73121;DHT22;61307;49.628;-1.624;2023-03-29T06:58:33;18.80;49.90
73121;DHT22;61307;49.628;-1.624;2023-03-29T07:01:01;18.80;49.90
73121;DHT22;61307;49.628;-1.624;2023-03-29T07:03:31;18.80;49.90
73121;DHT22;61307;49.628;-1.624;2023-03-29T07:06:00;18.80;49.90
73121;DHT22;61307;49.628;-1.624;2023-03-29T07:08:34;18.80;50.40
73121;DHT22;61307;49.628;-1.624;2023-03-29T07:11:08;18.80;50.40
73121;DHT22;61307;49.628;-1.624;2023-03-29T07:13:39;18.80;50.70
73121;DHT22;61307;49.628;-1.624;2023-03-29T07:16:07;18.90;50.70
73121;DHT22;61307;49.628;-1.624;2023-03-29T07:18:39;18.80;50.70
73121;DHT22;61307;49.628;-1.624;2023-03-29T07:21:06;18.90;50.70
73121;DHT22;61307;49.628;-1.624;2023-03-29T07:23:34;18.90;50.60
73121;DHT22;61307;49.628;-1.624;2023-03-29T07:26:02;18.80;51.10
73121;DHT22;61307;49.628;-1.624;2023-03-29T07:28:30;18.80;50.90
73121;DHT22;61307;49.628;-1.624;2023-03-29T07:31:02;18.90;50.90
73121;DHT22;61307;49.628;-1.624;2023-03-29T07:33:32;18.90;50.90
73121;DHT22;61307;49.628;-1.624;2023-03-29T07:36:02;18.90;50.80
73121;DHT22;61307;49.628;-1.624;2023-03-29T07:38:31;18.90;50.80
73121;DHT22;61307;49.628;-1.624;2023-03-29T07:41:01;18.90;50.70
73121;DHT22;61307;49.628;-1.624;2023-03-29T07:43:28;19.00;50.80
73121;DHT22;61307;49.628;-1.624;2023-03-29T07:46:00;19.00;50.70
73121;DHT22;61307;49.628;-1.624;2023-03-29T07:48:27;19.00;50.80
73121;DHT22;61307;49.628;-1.624;2023-03-29T07:50:55;19.00;50.80
73121;DHT22;61307;49.628;-1.624;2023-03-29T07:53:24;19.00;50.80
73121;DHT22;61307;49.628;-1.624;2023-03-29T07:55:51;19.00;50.80
73121;DHT22;61307;49.628;-1.624;2023-03-29T07:58:19;19.10;51.00
73121;DHT22;61307;49.628;-1.624;2023-03-29T08:00:47;19.10;51.00
73121;DHT22;61307;49.628;-1.624;2023-03-29T08:03:15;19.10;51.00
73121;DHT22;61307;49.628;-1.624;2023-03-29T08:05:42;19.10;51.00
73121;DHT22;61307;49.628;-1.624;2023-03-29T08:08:09;19.10;50.90
73121;DHT22;61307;49.628;-1.624;2023-03-29T08:10:41;19.10;50.90
73121;DHT22;61307;49.628;-1.624;2023-03-29T08:13:09;19.10;50.90
73121;DHT22;61307;49.628;-1.624;2023-03-29T08:15:38;19.10;50.90
73121;DHT22;61307;49.628;-1.624;2023-03-29T08:18:10;19.10;50.90
73121;DHT22;61307;49.628;-1.624;2023-03-29T08:20:38;19.10;50.90
73121;DHT22;61307;49.628;-1.624;2023-03-29T08:23:05;19.20;51.00
73121;DHT22;61307;49.628;-1.624;2023-03-29T08:25:33;19.20;51.10
73121;DHT22;61307;49.628;-1.624;2023-03-29T08:28:03;19.20;51.20
73121;DHT22;61307;49.628;-1.624;2023-03-29T08:30:30;19.20;51.20
73121;DHT22;61307;49.628;-1.624;2023-03-29T08:32:58;19.20;51.10
73121;DHT22;61307;49.628;-1.624;2023-03-29T08:35:25;19.20;51.00
73121;DHT22;61307;49.628;-1.624;2023-03-29T08:37:53;19.20;51.00
73121;DHT22;61307;49.628;-1.624;2023-03-29T08:40:23;19.30;51.20
73121;DHT22;61307;49.628;-1.624;2023-03-29T08:46:00;19.30;51.20
73121;DHT22;61307;49.628;-1.624;2023-03-29T08:48:31;19.30;51.20
73121;DHT22;61307;49.628;-1.624;2023-03-29T08:51:02;19.30;51.20
73121;DHT22;61307;49.628;-1.624;2023-03-29T08:53:35;19.30;51.20
73121;DHT22;61307;49.628;-1.624;2023-03-29T08:56:09;19.30;51.20
73121;DHT22;61307;49.628;-1.624;2023-03-29T08:58:37;19.30;51.20
73121;DHT22;61307;49.628;-1.624;2023-03-29T09:01:07;19.30;51.20
73121;DHT22;61307;49.628;-1.624;2023-03-29T09:03:39;19.30;51.20
73121;DHT22;61307;49.628;-1.624;2023-03-29T09:06:10;19.40;51.20
73121;DHT22;61307;49.628;-1.624;2023-03-29T09:08:41;19.40;51.20
73121;DHT22;61307;49.628;-1.624;2023-03-29T09:11:31;19.40;51.20
73121;DHT22;61307;49.628;-1.624;2023-03-29T09:14:21;19.40;51.40
73121;DHT22;61307;49.628;-1.624;2023-03-29T09:16:57;19.40;51.20
73121;DHT22;61307;49.628;-1.624;2023-03-29T09:19:36;19.40;51.20
73121;DHT22;61307;49.628;-1.624;2023-03-29T09:22:10;19.40;51.20
73121;DHT22;61307;49.628;-1.624;2023-03-29T09:24:54;19.50;51.20
73121;DHT22;61307;49.628;-1.624;2023-03-29T09:27:25;19.50;51.20
73121;DHT22;61307;49.628;-1.624;2023-03-29T09:30:02;19.50;51.20
73121;DHT22;61307;49.628;-1.624;2023-03-29T09:32:38;19.50;51.20
73121;DHT22;61307;49.628;-1.624;2023-03-29T09:35:12;19.50;51.10
73121;DHT22;61307;49.628;-1.624;2023-03-29T09:37:44;19.60;51.20
73121;DHT22;61307;49.628;-1.624;2023-03-29T09:40:15;19.60;51.20
73121;DHT22;61307;49.628;-1.624;2023-03-29T09:42:44;19.60;51.20
73121;DHT22;61307;49.628;-1.624;2023-03-29T09:45:11;19.60;51.20
73121;DHT22;61307;49.628;-1.624;2023-03-29T09:47:42;19.70;51.20
73121;DHT22;61307;49.628;-1.624;2023-03-29T09:50:14;19.60;51.20
73121;DHT22;61307;49.628;-1.624;2023-03-29T09:52:42;19.60;51.10
73121;DHT22;61307;49.628;-1.624;2023-03-29T09:55:13;19.60;51.10
73121;DHT22;61307;49.628;-1.624;2023-03-29T09:57:41;19.60;51.10
73121;DHT22;61307;49.628;-1.624;2023-03-29T10:00:09;19.70;51.20
73121;DHT22;61307;49.628;-1.624;2023-03-29T10:02:40;19.70;51.90
73121;DHT22;61307;49.628;-1.624;2023-03-29T10:05:14;19.70;51.20
73121;DHT22;61307;49.628;-1.624;2023-03-29T10:07:51;19.70;51.20
73121;DHT22;61307;49.628;-1.624;2023-03-29T10:10:22;19.70;51.20
73121;DHT22;61307;49.628;-1.624;2023-03-29T10:12:51;19.70;51.20
73121;DHT22;61307;49.628;-1.624;2023-03-29T10:15:20;19.70;51.20
73121;DHT22;61307;49.628;-1.624;2023-03-29T10:17:57;19.70;51.50
73121;DHT22;61307;49.628;-1.624;2023-03-29T10:20:24;19.70;51.30
73121;DHT22;61307;49.628;-1.624;2023-03-29T10:22:56;19.70;51.60
73121;DHT22;61307;49.628;-1.624;2023-03-29T10:25:26;19.70;51.70
73121;DHT22;61307;49.628;-1.624;2023-03-29T10:27:55;19.80;51.60
73121;DHT22;61307;49.628;-1.624;2023-03-29T10:30:24;19.80;51.40
73121;DHT22;61307;49.628;-1.624;2023-03-29T10:33:06;19.80;51.40
73121;DHT22;61307;49.628;-1.624;2023-03-29T10:35:41;19.80;51.60
73121;DHT22;61307;49.628;-1.624;2023-03-29T10:38:11;19.80;51.70
73121;DHT22;61307;49.628;-1.624;2023-03-29T10:40:42;19.80;52.70
73121;DHT22;61307;49.628;-1.624;2023-03-29T10:43:13;19.70;52.70
73121;DHT22;61307;49.628;-1.624;2023-03-29T10:45:40;19.70;52.50
73121;DHT22;61307;49.628;-1.624;2023-03-29T10:48:11;19.70;52.60
73121;DHT22;61307;49.628;-1.624;2023-03-29T10:50:39;19.70;52.90
73121;DHT22;61307;49.628;-1.624;2023-03-29T10:53:13;19.70;53.00
73121;DHT22;61307;49.628;-1.624;2023-03-29T10:55:46;19.70;53.20
73121;DHT22;61307;49.628;-1.624;2023-03-29T10:58:27;19.70;53.10
73121;DHT22;61307;49.628;-1.624;2023-03-29T11:00:58;19.60;53.10
73121;DHT22;61307;49.628;-1.624;2023-03-29T11:03:42;19.60;53.10
73121;DHT22;61307;49.628;-1.624;2023-03-29T11:06:20;19.60;53.70
73121;DHT22;61307;49.628;-1.624;2023-03-29T11:08:53;19.60;53.10
73121;DHT22;61307;49.628;-1.624;2023-03-29T11:11:39;19.50;53.30
73121;DHT22;61307;49.628;-1.624;2023-03-29T11:14:16;19.60;53.10
73121;DHT22;61307;49.628;-1.624;2023-03-29T11:16:51;19.50;53.00
73121;DHT22;61307;49.628;-1.624;2023-03-29T11:22:25;19.50;53.30
73121;DHT22;61307;49.628;-1.624;2023-03-29T11:25:08;19.50;53.00
73121;DHT22;61307;49.628;-1.624;2023-03-29T11:27:44;19.50;52.90
73121;DHT22;61307;49.628;-1.624;2023-03-29T11:30:21;19.50;52.80
73121;DHT22;61307;49.628;-1.624;2023-03-29T11:32:55;19.50;52.70
73121;DHT22;61307;49.628;-1.624;2023-03-29T11:35:40;19.60;52.70
73121;DHT22;61307;49.628;-1.624;2023-03-29T11:38:18;19.60;52.70
73121;DHT22;61307;49.628;-1.624;2023-03-29T11:40:57;19.60;52.60
73121;DHT22;61307;49.628;-1.624;2023-03-29T11:43:30;19.60;52.50
73121;DHT22;61307;49.628;-1.624;2023-03-29T11:46:02;19.60;52.50
73121;DHT22;61307;49.628;-1.624;2023-03-29T11:48:36;19.60;52.50
73121;DHT22;61307;49.628;-1.624;2023-03-29T11:51:10;19.60;52.50
73121;DHT22;61307;49.628;-1.624;2023-03-29T11:53:45;19.70;52.70
73121;DHT22;61307;49.628;-1.624;2023-03-29T11:56:21;19.70;52.70
73121;DHT22;61307;49.628;-1.624;2023-03-29T11:58:57;19.80;52.70
73121;DHT22;61307;49.628;-1.624;2023-03-29T12:01:30;19.70;52.60
73121;DHT22;61307;49.628;-1.624;2023-03-29T12:04:05;19.80;53.00
73121;DHT22;61307;49.628;-1.624;2023-03-29T12:06:38;19.90;52.60
73121;DHT22;61307;49.628;-1.624;2023-03-29T12:09:14;19.80;52.90
73121;DHT22;61307;49.628;-1.624;2023-03-29T12:11:53;19.90;52.90
73121;DHT22;61307;49.628;-1.624;2023-03-29T12:14:24;19.90;52.70
73121;DHT22;61307;49.628;-1.624;2023-03-29T12:16:59;20.00;52.70
73121;DHT22;61307;49.628;-1.624;2023-03-29T12:19:30;20.00;52.50
73121;DHT22;61307;49.628;-1.624;2023-03-29T12:22:02;20.00;52.50
73121;DHT22;61307;49.628;-1.624;2023-03-29T12:24:34;20.00;52.50
73121;DHT22;61307;49.628;-1.624;2023-03-29T12:27:19;20.00;52.30
73121;DHT22;61307;49.628;-1.624;2023-03-29T12:30:19;20.00;52.20
73121;DHT22;61307;49.628;-1.624;2023-03-29T12:33:08;20.00;52.40
73121;DHT22;61307;49.628;-1.624;2023-03-29T12:35:53;20.10;52.30
73121;DHT22;61307;49.628;-1.624;2023-03-29T12:38:29;20.10;52.20
73121;DHT22;61307;49.628;-1.624;2023-03-29T12:41:00;20.10;52.30
73121;DHT22;61307;49.628;-1.624;2023-03-29T12:43:30;20.10;52.30
73121;DHT22;61307;49.628;-1.624;2023-03-29T12:46:04;20.10;52.20
73121;DHT22;61307;49.628;-1.624;2023-03-29T12:48:32;20.20;52.20
73121;DHT22;61307;49.628;-1.624;2023-03-29T12:51:00;20.10;52.10
73121;DHT22;61307;49.628;-1.624;2023-03-29T12:53:32;20.20;52.10
73121;DHT22;61307;49.628;-1.624;2023-03-29T12:56:11;20.20;52.10
73121;DHT22;61307;49.628;-1.624;2023-03-29T12:59:14;20.20;52.00
73121;DHT22;61307;49.628;-1.624;2023-03-29T13:01:58;20.20;51.90
73121;DHT22;61307;49.628;-1.624;2023-03-29T13:04:37;20.20;51.80
73121;DHT22;61307;49.628;-1.624;2023-03-29T13:07:26;20.20;51.80
73121;DHT22;61307;49.628;-1.624;2023-03-29T13:10:00;20.20;51.80
73121;DHT22;61307;49.628;-1.624;2023-03-29T13:12:29;20.20;51.80
73121;DHT22;61307;49.628;-1.624;2023-03-29T13:15:06;20.20;51.70
73121;DHT22;61307;49.628;-1.624;2023-03-29T13:17:52;20.30;51.80
73121;DHT22;61307;49.628;-1.624;2023-03-29T13:20:37;20.30;52.00
73121;DHT22;61307;49.628;-1.624;2023-03-29T13:23:25;20.30;51.80
73121;DHT22;61307;49.628;-1.624;2023-03-29T13:26:12;20.30;51.60
73121;DHT22;61307;49.628;-1.624;2023-03-29T13:28:58;20.30;51.50
73121;DHT22;61307;49.628;-1.624;2023-03-29T13:31:34;20.40;51.60
73121;DHT22;61307;49.628;-1.624;2023-03-29T13:34:15;20.40;51.60
73121;DHT22;61307;49.628;-1.624;2023-03-29T13:36:56;20.40;51.50
73121;DHT22;61307;49.628;-1.624;2023-03-29T13:39:29;20.40;51.40
73121;DHT22;61307;49.628;-1.624;2023-03-29T13:42:16;20.40;51.40
73121;DHT22;61307;49.628;-1.624;2023-03-29T13:44:46;20.40;51.60
73121;DHT22;61307;49.628;-1.624;2023-03-29T13:47:27;20.40;51.50
73121;DHT22;61307;49.628;-1.624;2023-03-29T13:49:58;20.50;51.40
73121;DHT22;61307;49.628;-1.624;2023-03-29T13:52:29;20.50;51.30
73121;DHT22;61307;49.628;-1.624;2023-03-29T13:55:00;20.50;51.30
73121;DHT22;61307;49.628;-1.624;2023-03-29T13:57:37;20.40;51.30
73121;DHT22;61307;49.628;-1.624;2023-03-29T14:00:19;20.50;52.00
73121;DHT22;61307;49.628;-1.624;2023-03-29T14:02:49;20.50;51.30
73121;DHT22;61307;49.628;-1.624;2023-03-29T14:05:20;20.50;51.30
73121;DHT22;61307;49.628;-1.624;2023-03-29T14:07:53;20.50;51.30
73121;DHT22;61307;49.628;-1.624;2023-03-29T14:10:25;20.50;51.30
73121;DHT22;61307;49.628;-1.624;2023-03-29T14:12:56;20.50;51.30
73121;DHT22;61307;49.628;-1.624;2023-03-29T14:15:33;20.50;51.30
73121;DHT22;61307;49.628;-1.624;2023-03-29T14:18:03;20.50;51.30
73121;DHT22;61307;49.628;-1.624;2023-03-29T14:20:32;20.50;51.30
73121;DHT22;61307;49.628;-1.624;2023-03-29T14:23:00;20.50;51.30
73121;DHT22;61307;49.628;-1.624;2023-03-29T14:25:37;20.50;51.30
73121;DHT22;61307;49.628;-1.624;2023-03-29T14:28:18;20.50;51.20
73121;DHT22;61307;49.628;-1.624;2023-03-29T14:30:46;20.50;51.10
73121;DHT22;61307;49.628;-1.624;2023-03-29T14:33:22;20.50;51.00
73121;DHT22;61307;49.628;-1.624;2023-03-29T14:35:52;20.50;51.00
73121;DHT22;61307;49.628;-1.624;2023-03-29T14:38:21;20.50;51.00
73121;DHT22;61307;49.628;-1.624;2023-03-29T14:40:49;20.50;51.00
73121;DHT22;61307;49.628;-1.624;2023-03-29T14:43:20;20.50;51.00
73121;DHT22;61307;49.628;-1.624;2023-03-29T14:45:49;20.50;51.70
73121;DHT22;61307;49.628;-1.624;2023-03-29T14:48:17;20.50;51.00
73121;DHT22;61307;49.628;-1.624;2023-03-29T14:50:45;20.50;51.20
73121;DHT22;61307;49.628;-1.624;2023-03-29T14:53:17;20.50;51.20
73121;DHT22;61307;49.628;-1.624;2023-03-29T14:55:47;20.50;51.30
73121;DHT22;61307;49.628;-1.624;2023-03-29T14:58:21;20.50;51.20
73121;DHT22;61307;49.628;-1.624;2023-03-29T15:00:50;20.50;51.10
73121;DHT22;61307;49.628;-1.624;2023-03-29T15:03:18;20.50;51.20
73121;DHT22;61307;49.628;-1.624;2023-03-29T15:05:49;20.50;51.20
73121;DHT22;61307;49.628;-1.624;2023-03-29T15:08:21;20.50;51.20
73121;DHT22;61307;49.628;-1.624;2023-03-29T15:10:50;20.50;51.10
73121;DHT22;61307;49.628;-1.624;2023-03-29T15:13:21;20.50;51.10
73121;DHT22;61307;49.628;-1.624;2023-03-29T15:15:52;20.50;51.10
73121;DHT22;61307;49.628;-1.624;2023-03-29T15:18:25;20.50;51.10
73121;DHT22;61307;49.628;-1.624;2023-03-29T15:20:53;20.60;51.10
73121;DHT22;61307;49.628;-1.624;2023-03-29T15:23:22;20.50;51.00
73121;DHT22;61307;49.628;-1.624;2023-03-29T15:25:53;20.50;51.00
73121;DHT22;61307;49.628;-1.624;2023-03-29T15:28:27;20.60;51.00
73121;DHT22;61307;49.628;-1.624;2023-03-29T15:31:00;20.60;51.10
73121;DHT22;61307;49.628;-1.624;2023-03-29T15:33:35;20.60;51.10
73121;DHT22;61307;49.628;-1.624;2023-03-29T15:36:04;20.60;51.00
73121;DHT22;61307;49.628;-1.624;2023-03-29T15:38:32;20.60;51.00
73121;DHT22;61307;49.628;-1.624;2023-03-29T15:41:00;20.60;51.00
73121;DHT22;61307;49.628;-1.624;2023-03-29T15:43:29;20.60;51.00
73121;DHT22;61307;49.628;-1.624;2023-03-29T15:45:56;20.60;51.00